Time;durP1;ratioP1;P1;durP2;ratioP2;P2;SDS_P1;SDS_P2;PMS_P1;PMS_P2;Temp;Humidity;BMP_temperature;BMP_pressure;BME280_temperature;BME280_humidity;BME280_pressure;Samples;Min_cycle;Max_cycle;Signal;HPM_P1;HPM_P2
2022/07/24 00:00:56;;;;;;;12.43;7.30;;;15.40;99.90;;;;;;5075468;28;20045;-74
2022/07/24 00:03:22;;;;;;;11.50;7.57;;;15.40;99.90;;;;;;5075590;28;20496;-75
2022/07/24 00:05:47;;;;;;;12.75;7.03;;;15.40;99.90;;;;;;5075622;28;20570;-74
2022/07/24 00:08:13;;;;;;;12.80;7.40;;;15.40;99.90;;;;;;5075647;28;20123;-75
2022/07/24 00:10:39;;;;;;;15.20;7.60;;;15.40;99.90;;;;;;5074007;28;20045;-74
2022/07/24 00:13:04;;;;;;;14.85;7.63;;;15.40;99.90;;;;;;5074709;28;20098;-75
2022/07/24 00:15:30;;;;;;;16.10;7.78;;;15.40;99.90;;;;;;5075524;28;20434;-75
2022/07/24 00:17:56;;;;;;;14.75;7.88;;;15.40;99.90;;;;;;5075462;28;20125;-75
2022/07/24 00:20:22;;;;;;;13.00;6.75;;;15.30;99.90;;;;;;5075416;28;20059;-75
2022/07/24 00:22:49;;;;;;;12.35;7.45;;;15.30;99.90;;;;;;5074042;28;20051;-74
2022/07/24 00:25:15;;;;;;;13.90;8.02;;;15.30;99.90;;;;;;5075259;28;20065;-74
2022/07/24 00:27:40;;;;;;;17.52;7.40;;;15.20;99.90;;;;;;5075308;28;20040;-74
2022/07/24 00:30:07;;;;;;;14.60;6.85;;;15.20;99.90;;;;;;5075188;28;20045;-74
2022/07/24 00:32:32;;;;;;;11.23;7.00;;;15.20;99.90;;;;;;5074973;28;20040;-75
2022/07/24 00:34:58;;;;;;;13.38;6.85;;;15.30;99.90;;;;;;5075120;28;20055;-75
2022/07/24 00:37:23;;;;;;;11.90;6.75;;;15.30;99.90;;;;;;5074960;28;20423;-74
2022/07/24 00:39:49;;;;;;;16.13;6.90;;;15.30;99.90;;;;;;5074827;28;20129;-74
2022/07/24 00:42:15;;;;;;;11.35;6.45;;;15.20;99.90;;;;;;5074940;28;20044;-74
2022/07/24 00:44:40;;;;;;;11.40;6.25;;;15.30;99.90;;;;;;5073742;28;20040;-75
2022/07/24 00:47:06;;;;;;;12.40;6.78;;;15.30;99.90;;;;;;5074679;28;20040;-75
2022/07/24 00:49:32;;;;;;;12.15;6.90;;;15.30;99.90;;;;;;5074778;28;20040;-75
2022/07/24 00:51:58;;;;;;;12.18;6.18;;;15.30;99.90;;;;;;5074694;28;20053;-75
2022/07/24 00:54:24;;;;;;;10.20;6.15;;;15.30;99.90;;;;;;5073454;28;20472;-75
2022/07/24 00:56:52;;;;;;;14.02;6.57;;;15.30;99.90;;;;;;5073233;28;20044;-74
2022/07/24 00:59:19;;;;;;;13.57;7.07;;;15.30;99.90;;;;;;5074632;28;20051;-75
2022/07/24 01:01:46;;;;;;;11.80;6.50;;;15.20;99.90;;;;;;5074432;28;20052;-75
2022/07/24 01:04:12;;;;;;;13.50;7.25;;;15.30;99.90;;;;;;5073232;28;20084;-75
2022/07/24 01:06:41;;;;;;;12.95;6.80;;;15.30;99.90;;;;;;5073217;28;20098;-75
2022/07/24 01:09:07;;;;;;;17.95;7.30;;;15.20;99.90;;;;;;5074596;28;20063;-74
2022/07/24 01:11:33;;;;;;;11.73;7.03;;;15.20;99.90;;;;;;5073236;28;20590;-75
2022/07/24 01:14:00;;;;;;;10.98;7.43;;;15.20;99.90;;;;;;5074240;28;20139;-74
2022/07/24 01:16:25;;;;;;;11.82;7.25;;;15.20;99.90;;;;;;5074257;28;20101;-74
2022/07/24 01:18:51;;;;;;;12.43;7.47;;;15.20;99.90;;;;;;5074233;28;20041;-74
2022/07/24 01:21:16;;;;;;;11.18;7.20;;;15.20;99.90;;;;;;5072884;28;20051;-74
2022/07/24 01:23:42;;;;;;;11.90;7.30;;;15.20;99.90;;;;;;5073523;28;20047;-74
2022/07/24 01:26:08;;;;;;;11.90;7.43;;;15.10;99.90;;;;;;5074181;28;20036;-74
2022/07/24 01:28:34;;;;;;;13.93;7.38;;;15.20;99.90;;;;;;5074093;28;20055;-74
2022/07/24 01:31:00;;;;;;;13.07;7.15;;;15.10;99.90;;;;;;5073972;28;20483;-75
2022/07/24 01:33:26;;;;;;;13.63;7.30;;;15.10;99.90;;;;;;5072670;28;20041;-74
2022/07/24 01:35:52;;;;;;;15.73;8.20;;;15.10;99.90;;;;;;5073869;28;20106;-74
2022/07/24 01:38:18;;;;;;;18.33;9.02;;;15.10;99.90;;;;;;5072564;28;20067;-75
2022/07/24 01:40:44;;;;;;;14.75;8.50;;;15.10;99.90;;;;;;5073843;28;20044;-75
2022/07/24 01:43:10;;;;;;;12.00;7.70;;;15.10;99.90;;;;;;5073944;28;20032;-74
2022/07/24 01:45:35;;;;;;;15.98;8.55;;;15.10;99.90;;;;;;5072815;28;20498;-74
2022/07/24 01:48:02;;;;;;;16.52;8.93;;;15.10;99.90;;;;;;5072834;28;20396;-75
2022/07/24 01:50:28;;;;;;;14.40;8.27;;;15.10;99.90;;;;;;5073554;28;20586;-75
2022/07/24 01:52:54;;;;;;;13.70;8.43;;;15.10;99.90;;;;;;5072282;28;20120;-75
2022/07/24 01:55:21;;;;;;;15.60;9.00;;;15.10;99.90;;;;;;5073747;28;20047;-75
2022/07/24 01:57:47;;;;;;;19.75;9.18;;;15.00;99.90;;;;;;5073683;28;20033;-74
2022/07/24 02:00:13;;;;;;;16.90;9.15;;;15.00;99.90;;;;;;5073659;28;20579;-75
2022/07/24 02:02:41;;;;;;;19.33;9.23;;;15.00;99.90;;;;;;5073476;28;20128;-74
2022/07/24 02:05:07;;;;;;;15.55;9.05;;;14.90;99.90;;;;;;5073589;28;20048;-74
2022/07/24 02:07:33;;;;;;;14.85;8.65;;;15.00;99.90;;;;;;5072443;28;20071;-74
2022/07/24 02:09:59;;;;;;;14.73;9.85;;;14.90;99.90;;;;;;5072444;28;20464;-74
2022/07/24 02:12:25;;;;;;;20.02;9.27;;;14.90;99.90;;;;;;5073577;28;20127;-75
2022/07/24 02:14:51;;;;;;;18.50;10.15;;;14.90;99.90;;;;;;5073554;28;20079;-74
2022/07/24 02:17:16;;;;;;;16.73;9.63;;;14.90;99.90;;;;;;5073543;28;20036;-74
2022/07/24 02:19:42;;;;;;;16.92;11.05;;;14.90;99.90;;;;;;5072407;28;20044;-75
2022/07/24 02:22:07;;;;;;;15.52;9.52;;;14.90;99.90;;;;;;5073353;28;20078;-74
2022/07/24 02:24:33;;;;;;;20.55;11.50;;;15.00;99.90;;;;;;5073467;28;20055;-74
2022/07/24 02:26:59;;;;;;;20.35;9.88;;;14.90;99.90;;;;;;5073344;28;20066;-75
2022/07/24 02:29:24;;;;;;;14.95;10.32;;;15.00;99.90;;;;;;5073387;28;20138;-75
2022/07/24 02:31:50;;;;;;;18.67;10.25;;;14.90;99.90;;;;;;5072420;28;20044;-75
2022/07/24 02:34:16;;;;;;;18.42;11.30;;;14.90;99.90;;;;;;5073305;28;20404;-74
2022/07/24 02:36:41;;;;;;;18.55;11.40;;;15.00;99.90;;;;;;5077338;28;20056;-75
2022/07/24 02:39:07;;;;;;;18.27;11.10;;;15.00;99.90;;;;;;5077060;28;20387;-75
2022/07/24 02:41:33;;;;;;;15.05;10.75;;;15.00;99.90;;;;;;5077193;28;20044;-75
2022/07/24 02:43:58;;;;;;;20.63;11.25;;;15.00;99.90;;;;;;5077045;28;20036;-74
2022/07/24 02:46:24;;;;;;;19.98;10.77;;;15.00;99.90;;;;;;5077192;28;20051;-74
2022/07/24 02:48:50;;;;;;;17.35;10.45;;;15.00;99.90;;;;;;5077093;28;20040;-75
2022/07/24 02:51:15;;;;;;;20.67;11.45;;;15.00;99.90;;;;;;5076812;28;20056;-74
2022/07/24 02:53:41;;;;;;;18.00;11.25;;;15.10;99.90;;;;;;5076875;28;20074;-74
2022/07/24 02:56:07;;;;;;;17.27;11.35;;;15.10;99.90;;;;;;5076983;28;20045;-75
2022/07/24 02:58:32;;;;;;;20.35;11.65;;;15.00;99.90;;;;;;5075623;28;20060;-74
2022/07/24 03:00:58;;;;;;;17.83;12.55;;;15.00;99.90;;;;;;5075654;28;20094;-75
2022/07/24 03:03:24;;;;;;;18.58;11.05;;;15.00;99.90;;;;;;5076716;28;20064;-75
2022/07/24 03:05:50;;;;;;;17.58;11.13;;;15.00;99.90;;;;;;5075317;28;20044;-75
2022/07/24 03:08:16;;;;;;;19.85;12.10;;;15.00;99.90;;;;;;5076814;28;20064;-74
2022/07/24 03:10:41;;;;;;;19.00;12.10;;;14.90;99.90;;;;;;5076728;28;20124;-75
2022/07/24 03:13:08;;;;;;;18.70;11.98;;;15.00;99.90;;;;;;5076665;28;20083;-74
2022/07/24 03:15:33;;;;;;;19.52;12.95;;;14.90;99.90;;;;;;5076463;28;20048;-75
2022/07/24 03:17:59;;;;;;;20.08;13.15;;;14.90;99.90;;;;;;5076345;28;20050;-74
2022/07/24 03:20:28;;;;;;;21.95;12.43;;;14.90;99.90;;;;;;5075032;28;20061;-75
2022/07/24 03:22:54;;;;;;;21.25;12.80;;;14.90;99.90;;;;;;5075976;28;20496;-74
2022/07/24 03:25:20;;;;;;;22.88;13.18;;;14.90;99.90;;;;;;5075979;28;20487;-74
2022/07/24 03:27:47;;;;;;;20.60;13.40;;;14.90;99.90;;;;;;5074675;28;20472;-74
2022/07/24 03:30:14;;;;;;;22.45;13.30;;;14.90;99.90;;;;;;5075809;28;20052;-74
2022/07/24 03:32:40;;;;;;;23.00;13.95;;;15.00;99.90;;;;;;5074502;28;20063;-74
2022/07/24 03:35:08;;;;;;;21.25;13.25;;;14.90;99.90;;;;;;5075085;28;20426;-75
2022/07/24 03:37:35;;;;;;;21.42;13.55;;;14.90;99.90;;;;;;5074412;28;20048;-74
2022/07/24 03:40:00;;;;;;;20.13;13.73;;;15.00;99.90;;;;;;5074800;28;20036;-75
2022/07/24 03:42:26;;;;;;;21.08;14.45;;;15.00;99.90;;;;;;5072967;28;20396;-74
2022/07/24 03:44:51;;;;;;;25.50;15.15;;;15.00;99.90;;;;;;5075887;28;20051;-75
2022/07/24 03:47:17;;;;;;;22.73;14.45;;;15.00;99.90;;;;;;5074561;28;20462;-74
2022/07/24 03:49:43;;;;;;;22.58;14.20;;;15.00;99.90;;;;;;5075981;28;20048;-75
2022/07/24 03:52:08;;;;;;;24.48;14.10;;;15.10;99.90;;;;;;5074439;28;20086;-75
2022/07/24 03:54:34;;;;;;;20.90;13.88;;;15.00;99.90;;;;;;5074344;28;20048;-75
2022/07/24 03:56:59;;;;;;;23.13;15.18;;;15.10;99.90;;;;;;5075843;28;20041;-74
2022/07/24 03:59:25;;;;;;;23.02;14.20;;;15.10;99.90;;;;;;5074556;28;20075;-75
2022/07/24 04:01:51;;;;;;;23.25;14.95;;;15.00;99.90;;;;;;5075312;28;20112;-75
2022/07/24 04:04:17;;;;;;;22.90;15.00;;;15.10;99.90;;;;;;5075684;28;20507;-75
2022/07/24 04:06:43;;;;;;;22.92;13.93;;;15.10;99.90;;;;;;5091326;28;20196;-75
2022/07/24 04:09:09;;;;;;;23.48;14.73;;;15.10;99.90;;;;;;5075443;28;20134;-75
2022/07/24 04:11:35;;;;;;;24.23;14.30;;;15.10;99.90;;;;;;5074096;28;20541;-75
2022/07/24 04:14:00;;;;;;;22.90;14.88;;;15.20;99.90;;;;;;5075478;28;20078;-75
2022/07/24 04:16:26;;;;;;;25.00;15.35;;;15.20;99.90;;;;;;5075321;28;20078;-74
2022/07/24 04:18:52;;;;;;;24.90;15.07;;;15.20;99.90;;;;;;5074144;28;20129;-74
2022/07/24 04:21:17;;;;;;;24.00;14.63;;;15.20;99.90;;;;;;5075219;28;20056;-75
2022/07/24 04:23:43;;;;;;;25.23;15.95;;;15.30;99.90;;;;;;5074899;28;20076;-75
2022/07/24 04:26:09;;;;;;;24.67;15.57;;;15.30;99.90;;;;;;5073747;28;20450;-75
2022/07/24 04:28:35;;;;;;;23.10;13.63;;;15.40;99.90;;;;;;5075067;28;20491;-75
2022/07/24 04:31:01;;;;;;;24.60;14.93;;;15.30;99.90;;;;;;5074835;28;20043;-75
2022/07/24 04:33:27;;;;;;;21.75;14.88;;;15.40;99.90;;;;;;5075099;28;20044;-75
2022/07/24 04:35:53;;;;;;;23.20;16.13;;;15.40;99.90;;;;;;5073784;28;20132;-75
2022/07/24 04:38:18;;;;;;;27.80;15.25;;;15.50;99.90;;;;;;5074986;28;20404;-75
2022/07/24 04:40:44;;;;;;;22.67;15.60;;;15.50;99.90;;;;;;5073515;28;20131;-75
2022/07/24 04:43:10;;;;;;;25.08;14.10;;;15.50;99.90;;;;;;5074758;28;20495;-74
2022/07/24 04:45:35;;;;;;;21.92;15.20;;;15.60;99.90;;;;;;5073547;28;20075;-74
2022/07/24 04:48:01;;;;;;;24.50;14.95;;;15.60;99.90;;;;;;5073397;28;20049;-74
2022/07/24 04:50:27;;;;;;;24.73;15.15;;;15.70;99.90;;;;;;5074733;28;20032;-74
2022/07/24 04:52:53;;;;;;;23.65;14.93;;;15.70;99.90;;;;;;5073297;28;20449;-74
2022/07/24 04:55:18;;;;;;;24.95;16.30;;;15.70;99.90;;;;;;5074469;28;20044;-74
2022/07/24 04:57:44;;;;;;;28.77;15.40;;;15.70;99.90;;;;;;5074019;28;20044;-74
2022/07/24 05:00:12;;;;;;;23.67;15.88;;;15.80;99.90;;;;;;5072919;28;20055;-74
2022/07/24 05:02:38;;;;;;;25.45;15.80;;;15.80;99.90;;;;;;5090139;28;20400;-75
2022/07/24 05:05:04;;;;;;;26.63;15.93;;;15.80;99.90;;;;;;5074147;28;20548;-75
2022/07/24 05:07:30;;;;;;;23.58;15.80;;;15.80;99.90;;;;;;5074600;28;20041;-75
2022/07/24 05:09:57;;;;;;;22.65;14.07;;;15.80;99.90;;;;;;5073112;28;20181;-74
2022/07/24 05:12:23;;;;;;;21.23;15.25;;;15.90;99.90;;;;;;5073023;28;20048;-74
2022/07/24 05:14:48;;;;;;;26.48;15.73;;;15.90;99.90;;;;;;5074234;28;20040;-74
2022/07/24 05:17:14;;;;;;;23.73;14.70;;;16.00;99.90;;;;;;5074312;28;20517;-74
2022/07/24 05:19:40;;;;;;;25.55;15.60;;;16.10;99.90;;;;;;5089625;28;20049;-75
2022/07/24 05:22:06;;;;;;;21.92;14.70;;;16.10;99.90;;;;;;5073645;28;20053;-75
2022/07/24 05:24:31;;;;;;;23.98;15.30;;;16.30;99.90;;;;;;5073406;28;20045;-75
2022/07/24 05:26:57;;;;;;;25.30;15.07;;;16.30;99.90;;;;;;5073135;28;20111;-75
2022/07/24 05:29:23;;;;;;;23.73;14.20;;;16.40;99.90;;;;;;5072959;28;20487;-75
2022/07/24 05:31:49;;;;;;;24.58;15.63;;;16.50;99.90;;;;;;5073066;28;20081;-75
2022/07/24 05:34:14;;;;;;;23.20;14.73;;;16.60;99.90;;;;;;5071803;28;20466;-74
2022/07/24 05:36:40;;;;;;;21.83;15.05;;;16.70;99.90;;;;;;5073188;28;20124;-75
2022/07/24 05:39:06;;;;;;;19.90;14.48;;;16.70;99.90;;;;;;5088846;28;20119;-75
2022/07/24 05:41:31;;;;;;;22.23;14.57;;;16.90;99.90;;;;;;5073035;28;20045;-75
2022/07/24 05:43:57;;;;;;;21.05;13.77;;;17.00;99.90;;;;;;5071749;28;20127;-75
2022/07/24 05:46:23;;;;;;;25.42;15.02;;;17.10;99.90;;;;;;5071580;28;20045;-75
2022/07/24 05:48:49;;;;;;;23.45;15.18;;;17.30;99.90;;;;;;5073095;28;20076;-75
2022/07/24 05:51:15;;;;;;;24.33;14.43;;;17.40;99.90;;;;;;5072692;28;20095;-75
2022/07/24 05:53:40;;;;;;;23.70;14.13;;;17.60;99.90;;;;;;5072698;28;20044;-75
2022/07/24 05:56:06;;;;;;;23.08;15.50;;;17.80;99.90;;;;;;5071478;28;20037;-75
2022/07/24 05:58:32;;;;;;;23.35;14.60;;;17.90;99.90;;;;;;5072698;28;20118;-75
2022/07/24 06:00:58;;;;;;;22.20;14.27;;;18.00;99.90;;;;;;5071355;28;20404;-75
2022/07/24 06:03:23;;;;;;;24.38;15.43;;;18.00;99.90;;;;;;5071417;28;20044;-75
2022/07/24 06:05:49;;;;;;;19.83;13.48;;;17.90;99.90;;;;;;5072522;28;20125;-75
2022/07/24 06:08:14;;;;;;;22.98;14.80;;;17.80;99.90;;;;;;5072690;28;20037;-75
2022/07/24 06:10:40;;;;;;;20.67;14.93;;;17.70;99.90;;;;;;5071508;28;20115;-75
2022/07/24 06:13:06;;;;;;;25.02;15.85;;;17.60;99.90;;;;;;5072445;28;20543;-75
2022/07/24 06:15:32;;;;;;;21.92;14.73;;;17.60;99.90;;;;;;5072399;28;20505;-75
2022/07/24 06:17:58;;;;;;;25.08;15.07;;;17.90;99.90;;;;;;5072580;28;20040;-75
2022/07/24 06:20:23;;;;;;;21.85;14.77;;;18.10;99.90;;;;;;5072489;28;20029;-75
2022/07/24 06:22:50;;;;;;;19.95;14.45;;;18.30;99.90;;;;;;5034696;28;1090913;-75
2022/07/24 06:25:17;;;;;;;21.23;14.15;;;18.50;99.90;;;;;;5071978;28;20052;-75
2022/07/24 06:27:44;;;;;;;25.08;14.68;;;18.80;99.90;;;;;;5071871;28;20044;-75
2022/07/24 06:30:21;;;;;;;22.05;15.48;;;18.80;99.90;;;;;;5073447;28;20036;-75
2022/07/24 06:32:49;;;;;;;24.40;15.80;;;19.00;99.90;;;;;;5072242;28;20057;-75
2022/07/24 06:35:18;;;;;;;22.92;15.65;;;19.10;99.90;;;;;;5071859;28;20487;-75
2022/07/24 06:37:43;;;;;;;22.08;15.25;;;19.30;99.90;;;;;;5072999;28;20385;-75
2022/07/24 06:40:10;;;;;;;25.75;15.90;;;19.40;99.90;;;;;;5073211;28;20487;-75
2022/07/24 06:42:35;;;;;;;26.27;15.82;;;19.60;99.90;;;;;;5073351;28;20044;-74
2022/07/24 06:45:01;;;;;;;23.35;16.83;;;19.80;99.90;;;;;;5073275;28;20536;-74
2022/07/24 06:47:27;;;;;;;24.38;16.25;;;19.90;99.90;;;;;;5073129;28;20493;-74
2022/07/24 06:49:53;;;;;;;29.00;16.90;;;20.10;99.90;;;;;;5073174;28;20174;-76
2022/07/24 06:52:19;;;;;;;26.30;17.80;;;20.20;99.90;;;;;;5073922;28;20051;-74
2022/07/24 06:54:45;;;;;;;29.15;19.35;;;20.40;99.90;;;;;;5080562;28;20097;-74
2022/07/24 06:57:11;;;;;;;27.63;18.77;;;20.70;99.90;;;;;;5073094;28;20041;-74
2022/07/24 06:59:37;;;;;;;26.13;18.63;;;20.90;99.90;;;;;;5071476;28;20048;-74
2022/07/24 07:02:02;;;;;;;27.10;18.08;;;21.10;99.90;;;;;;5072722;28;20045;-74
2022/07/24 07:04:28;;;;;;;29.83;17.35;;;21.20;99.90;;;;;;5071352;28;20044;-74
2022/07/24 07:06:54;;;;;;;26.85;16.75;;;21.30;99.90;;;;;;5072614;28;20128;-74
2022/07/24 07:09:19;;;;;;;23.10;16.02;;;21.30;99.90;;;;;;5071239;28;20037;-74
2022/07/24 07:11:45;;;;;;;25.05;15.98;;;21.30;99.90;;;;;;5071391;28;20044;-74
2022/07/24 07:14:11;;;;;;;23.27;16.05;;;21.30;99.90;;;;;;5071534;28;20049;-74
2022/07/24 07:16:36;;;;;;;34.35;14.50;;;21.40;99.90;;;;;;5071289;28;20056;-74
2022/07/24 07:19:02;;;;;;;21.00;14.18;;;21.30;99.90;;;;;;5072763;28;20055;-74
2022/07/24 07:21:28;;;;;;;20.67;13.63;;;21.40;99.90;;;;;;5073017;28;20098;-74
2022/07/24 07:23:54;;;;;;;19.20;13.10;;;21.60;99.90;;;;;;5075765;28;20056;-74
2022/07/24 07:26:19;;;;;;;17.80;12.82;;;21.60;99.90;;;;;;5076242;28;20116;-74
2022/07/24 07:28:45;;;;;;;18.42;14.02;;;21.50;99.90;;;;;;5074761;28;20052;-73
2022/07/24 07:31:10;;;;;;;19.35;13.15;;;21.40;99.90;;;;;;5075914;28;20041;-74
2022/07/24 07:33:36;;;;;;;18.30;13.68;;;21.20;99.90;;;;;;5076156;28;20040;-74
2022/07/24 07:36:02;;;;;;;20.08;12.95;;;21.20;99.90;;;;;;5075761;28;20040;-74
2022/07/24 07:38:28;;;;;;;18.52;13.32;;;21.10;99.90;;;;;;5075740;28;20491;-74
2022/07/24 07:40:53;;;;;;;16.77;12.25;;;21.00;99.90;;;;;;5075820;28;20052;-74
2022/07/24 07:43:19;;;;;;;18.95;12.98;;;21.00;99.90;;;;;;5074488;28;20048;-74
2022/07/24 07:45:44;;;;;;;16.08;11.60;;;21.00;99.90;;;;;;5075699;28;20044;-74
2022/07/24 07:48:11;;;;;;;17.67;11.35;;;21.00;99.90;;;;;;5075652;28;20043;-75
2022/07/24 07:50:37;;;;;;;19.20;12.45;;;20.90;99.90;;;;;;5075529;28;20385;-75
2022/07/24 07:53:03;;;;;;;20.85;12.45;;;20.80;99.90;;;;;;5074494;28;20502;-75
2022/07/24 07:55:28;;;;;;;20.23;13.93;;;20.80;99.90;;;;;;5075386;28;20469;-75
2022/07/24 07:57:54;;;;;;;19.13;12.75;;;20.80;99.90;;;;;;5075640;28;20123;-75
2022/07/24 08:00:20;;;;;;;17.35;12.35;;;20.70;99.90;;;;;;5075467;28;20033;-75
2022/07/24 08:02:46;;;;;;;17.85;13.10;;;20.70;99.90;;;;;;5075313;28;20067;-75
2022/07/24 08:05:11;;;;;;;19.52;12.23;;;20.70;99.90;;;;;;5075190;28;20040;-75
2022/07/24 08:07:37;;;;;;;17.75;12.70;;;20.70;99.90;;;;;;5075319;28;20086;-74
2022/07/24 08:10:05;;;;;;;20.83;13.95;;;20.80;99.90;;;;;;5085167;28;20047;-75
2022/07/24 08:12:31;;;;;;;17.42;13.35;;;20.80;99.90;;;;;;5075376;28;20045;-74
2022/07/24 08:14:57;;;;;;;23.25;13.32;;;20.80;99.90;;;;;;5074082;28;20050;-74
2022/07/24 08:17:22;;;;;;;24.15;13.95;;;20.90;99.90;;;;;;5075327;28;20036;-75
2022/07/24 08:19:48;;;;;;;18.58;13.55;;;20.80;99.90;;;;;;5073946;28;20077;-74
2022/07/24 08:22:14;;;;;;;18.67;13.27;;;20.80;99.90;;;;;;5073399;28;20088;-74
2022/07/24 08:24:40;;;;;;;18.90;14.15;;;20.80;99.90;;;;;;5073728;28;20048;-74
2022/07/24 08:27:06;;;;;;;17.80;13.02;;;20.80;99.90;;;;;;5075134;28;20114;-75
2022/07/24 08:29:31;;;;;;;18.38;12.65;;;20.90;99.90;;;;;;5073528;28;20048;-75
2022/07/24 08:31:57;;;;;;;17.92;13.82;;;20.90;99.90;;;;;;5074156;28;20036;-75
2022/07/24 08:34:23;;;;;;;16.98;12.35;;;20.90;99.90;;;;;;5073339;28;20113;-74
2022/07/24 08:36:49;;;;;;;20.08;12.50;;;20.90;99.90;;;;;;5074452;28;20438;-74
2022/07/24 08:39:18;;;;;;;16.88;13.05;;;20.90;99.90;;;;;;5083920;28;20044;-74
2022/07/24 08:41:45;;;;;;;21.88;12.43;;;21.00;99.90;;;;;;5093092;28;20048;-74
2022/07/24 08:44:11;;;;;;;17.38;12.43;;;21.10;99.90;;;;;;5093491;28;20483;-74
2022/07/24 08:46:38;;;;;;;19.67;12.57;;;21.10;99.90;;;;;;5094707;28;20055;-74
2022/07/24 08:49:09;;;;;;;17.50;12.05;;;21.30;99.90;;;;;;5087036;28;20055;-74
2022/07/24 08:51:38;;;;;;;20.52;10.55;;;21.40;99.90;;;;;;5093146;28;20047;-74
2022/07/24 08:54:04;;;;;;;19.67;11.38;;;21.60;99.90;;;;;;5093295;28;20127;-75
2022/07/24 08:56:30;;;;;;;22.23;12.52;;;21.80;99.90;;;;;;5094485;28;20505;-75
2022/07/24 08:58:55;;;;;;;16.70;11.38;;;21.80;99.90;;;;;;5094805;28;20044;-75
2022/07/24 09:01:22;;;;;;;18.05;11.23;;;21.90;99.90;;;;;;5110033;28;20398;-74
2022/07/24 09:03:47;;;;;;;19.38;10.82;;;21.90;99.90;;;;;;5094706;28;20044;-74
2022/07/24 09:06:15;;;;;;;17.27;9.55;;;22.10;99.90;;;;;;5093390;28;20479;-74
2022/07/24 09:08:59;;;;;;;12.82;9.13;;;22.20;99.90;;;;;;5086666;28;20048;-75
2022/07/24 09:11:28;;;;;;;11.65;7.25;;;22.30;99.90;;;;;;5087661;28;20544;-75
2022/07/24 09:16:45;;;;;;;11.43;5.93;;;22.50;99.90;;;;;;5094108;28;20055;-75
2022/07/24 09:19:13;;;;;;;9.95;5.60;;;22.80;99.90;;;;;;5087705;28;20402;-75
2022/07/24 09:21:40;;;;;;;8.68;5.80;;;23.10;99.90;;;;;;5078447;28;20067;-75
2022/07/24 09:24:17;;;;;;;8.52;6.10;;;23.20;99.90;;;;;;5074149;28;20200;-75
2022/07/24 09:26:51;;;;;;;7.88;5.30;;;23.20;99.90;;;;;;5072749;28;20052;-75
2022/07/24 09:29:19;;;;;;;9.00;5.75;;;23.40;99.90;;;;;;5073805;28;20051;-75
2022/07/24 09:31:59;;;;;;;8.10;5.35;;;23.70;99.90;;;;;;5074071;28;20036;-75
2022/07/24 09:34:28;;;;;;;8.38;5.40;;;24.00;99.90;;;;;;5072789;28;20107;-75
2022/07/24 09:37:05;;;;;;;7.63;5.40;;;24.20;99.90;;;;;;5073793;28;20040;-76
2022/07/24 09:39:34;;;;;;;23.00;8.13;;;24.40;99.90;;;;;;5082969;28;20036;-75
2022/07/24 09:42:03;;;;;;;8.55;4.82;;;24.20;99.90;;;;;;5074225;28;20510;-76
2022/07/24 09:44:32;;;;;;;6.68;4.63;;;24.20;99.90;;;;;;5073525;28;20076;-76
2022/07/24 09:47:04;;;;;;;8.27;4.70;;;24.20;99.90;;;;;;5073605;28;20131;-75
2022/07/24 09:49:30;;;;;;;8.15;4.10;;;24.50;99.90;;;;;;5072567;28;20098;-75
2022/07/24 09:52:05;;;;;;;8.70;4.30;;;24.70;99.90;;;;;;5073481;28;20570;-75
2022/07/24 09:54:34;;;;;;;7.68;4.30;;;24.80;99.90;;;;;;5073669;28;20040;-76
2022/07/24 09:57:14;;;;;;;6.25;4.20;;;25.10;99.90;;;;;;5073620;28;20040;-76
2022/07/24 09:59:41;;;;;;;14.18;4.20;;;25.20;99.90;;;;;;5072244;28;20542;-76
2022/07/24 10:02:07;;;;;;;8.40;4.03;;;25.40;99.90;;;;;;5073272;28;20105;-76
2022/07/24 10:04:34;;;;;;;8.35;4.38;;;25.50;99.90;;;;;;5072454;28;20400;-76
2022/07/24 10:07:02;;;;;;;8.23;4.50;;;25.60;99.90;;;;;;5073443;28;20048;-75
2022/07/24 10:09:30;;;;;;;8.93;3.78;;;25.60;99.90;;;;;;5080387;28;20063;-75
2022/07/24 10:11:57;;;;;;;7.47;4.15;;;25.60;99.90;;;;;;5078158;28;20051;-76
2022/07/24 10:14:24;;;;;;;6.95;3.55;;;25.70;99.90;;;;;;5063207;28;20040;-75
2022/07/24 10:17:04;;;;;;;7.50;4.20;;;25.90;99.90;;;;;;5057696;28;20146;-76
2022/07/24 10:19:39;;;;;;;9.95;4.10;;;26.10;99.90;;;;;;5078245;28;20051;-77
2022/07/24 10:22:10;;;;;;;5.32;3.53;;;25.90;99.90;;;;;;5074272;28;20107;-76
2022/07/24 10:24:52;;;;;;;6.55;3.75;;;25.70;99.90;;;;;;5072276;28;20098;-76
2022/07/24 10:27:23;;;;;;;5.75;3.50;;;25.50;99.90;;;;;;5035323;28;20071;-76
2022/07/24 10:29:51;;;;;;;6.07;3.53;;;25.50;99.90;;;;;;5045680;28;20127;-76
2022/07/24 10:32:17;;;;;;;8.88;4.25;;;25.40;99.90;;;;;;5081583;28;20055;-76
2022/07/24 10:34:47;;;;;;;9.45;3.88;;;25.50;99.90;;;;;;5092380;28;20055;-76
2022/07/24 10:37:28;;;;;;;5.88;3.50;;;25.70;99.90;;;;;;5092367;28;20085;-76
2022/07/24 10:40:16;;;;;;;11.32;4.20;;;26.20;99.90;;;;;;5093250;28;20388;-76
2022/07/24 10:43:08;;;;;;;6.72;3.75;;;26.30;99.90;;;;;;5067171;28;21748;-75
2022/07/24 10:45:58;;;;;;;5.32;3.50;;;26.10;99.90;;;;;;5058886;28;20042;-76
2022/07/24 10:48:26;;;;;;;6.65;3.60;;;26.10;99.90;;;;;;5049183;28;20056;-76
2022/07/24 10:51:07;;;;;;;8.25;3.67;;;26.00;99.90;;;;;;5033687;28;20245;-76
2022/07/24 10:53:39;;;;;;;6.15;3.33;;;25.70;99.90;;;;;;5051270;28;20460;-76
2022/07/24 10:56:19;;;;;;;7.05;3.50;;;25.80;99.90;;;;;;5083906;28;20109;-75
2022/07/24 10:58:58;;;;;;;10.50;3.45;;;26.10;99.90;;;;;;5096998;28;20039;-75
2022/07/24 11:01:29;;;;;;;6.60;3.33;;;26.30;99.90;;;;;;5096815;28;20105;-75
2022/07/24 11:03:54;;;;;;;5.22;3.30;;;26.20;99.90;;;;;;5096873;28;20562;-75
2022/07/24 11:06:47;;;;;;;6.07;3.47;;;26.50;99.90;;;;;;5095872;28;20119;-76
2022/07/24 11:09:13;;;;;;;;;;;26.50;99.90;;;;;;5097270;28;20055;-76
2022/07/24 11:12:03;;;;;;;6.03;3.28;;;26.40;99.90;;;;;;5096963;28;19920;-76
2022/07/24 11:14:38;;;;;;;5.72;3.25;;;26.40;99.90;;;;;;5095495;28;20048;-75
2022/07/24 11:17:39;;;;;;;6.93;2.78;;;26.40;99.90;;;;;;5094841;28;20057;-76
2022/07/24 11:20:07;;;;;;;6.50;2.70;;;26.30;99.90;;;;;;5083082;28;20041;-75
2022/07/24 11:23:05;;;;;;;5.80;2.88;;;26.40;99.90;;;;;;5093321;28;20399;-76
2022/07/24 11:25:31;;;;;;;6.50;3.10;;;26.10;99.90;;;;;;5090596;28;20107;-77
2022/07/24 11:28:18;;;;;;;5.53;3.13;;;25.90;99.90;;;;;;5074810;28;20049;-75
2022/07/24 11:30:45;;;;;;;5.97;3.30;;;25.80;99.90;;;;;;5089616;28;20110;-75
2022/07/24 11:33:16;;;;;;;6.72;2.85;;;25.80;99.90;;;;;;5074621;28;20480;-76
2022/07/24 11:35:43;;;;;;;4.65;3.10;;;25.90;99.90;;;;;;5075899;28;20512;-75
2022/07/24 11:38:09;;;;;;;4.78;2.92;;;26.00;99.90;;;;;;5074876;28;20040;-75
2022/07/24 11:40:35;;;;;;;4.18;3.05;;;26.20;99.90;;;;;;5076138;28;20036;-76
2022/07/24 11:43:05;;;;;;;8.18;3.05;;;26.40;99.90;;;;;;5074641;28;20131;-76
2022/07/24 11:45:31;;;;;;;8.45;4.20;;;26.50;99.90;;;;;;5075915;28;20128;-76
2022/07/24 11:47:57;;;;;;;6.07;3.20;;;26.20;99.90;;;;;;5074786;28;20127;-77
2022/07/24 11:50:27;;;;;;;7.75;3.42;;;26.20;99.90;;;;;;5084582;28;20506;-77
2022/07/24 11:52:53;;;;;;;5.07;3.25;;;26.30;99.90;;;;;;5095988;28;20089;-76
2022/07/24 11:55:21;;;;;;;4.25;2.97;;;26.30;99.90;;;;;;5095873;28;20040;-76
2022/07/24 11:57:49;;;;;;;5.30;2.97;;;26.20;99.90;;;;;;5094900;28;20056;-76
2022/07/24 12:00:18;;;;;;;8.98;2.80;;;26.20;99.90;;;;;;5095981;28;20050;-76
2022/07/24 12:02:49;;;;;;;7.28;3.22;;;26.20;99.90;;;;;;5095775;28;20449;-76
2022/07/24 12:05:25;;;;;;;6.03;3.15;;;26.20;99.90;;;;;;5095571;28;20080;-75
2022/07/24 12:07:50;;;;;;;5.05;3.17;;;26.10;99.90;;;;;;5095387;28;20044;-76
2022/07/24 12:10:20;;;;;;;6.78;2.80;;;26.20;99.90;;;;;;5094143;28;20100;-75
2022/07/24 12:12:48;;;;;;;4.25;2.85;;;26.30;99.90;;;;;;5095623;28;20038;-75
2022/07/24 12:15:14;;;;;;;4.43;3.50;;;26.30;99.90;;;;;;5094243;28;20495;-76
2022/07/24 12:18:02;;;;;;;5.60;3.17;;;26.50;99.90;;;;;;5094120;28;20538;-75
2022/07/24 12:20:36;;;;;;;4.10;2.97;;;26.70;99.90;;;;;;5094251;28;20044;-75
2022/07/24 12:23:07;;;;;;;5.95;3.47;;;27.00;99.90;;;;;;5093937;28;20110;-75
2022/07/24 12:25:34;;;;;;;6.25;3.47;;;27.00;99.90;;;;;;5095204;28;20052;-75
2022/07/24 12:28:14;;;;;;;7.22;3.20;;;27.20;99.90;;;;;;5094933;28;20455;-76
2022/07/24 12:30:45;;;;;;;4.15;3.03;;;27.10;99.90;;;;;;5094831;28;20059;-77
2022/07/24 12:33:14;;;;;;;5.57;3.17;;;27.20;99.90;;;;;;5090353;28;20051;-76
2022/07/24 12:36:01;;;;;;;4.05;3.00;;;27.10;99.90;;;;;;5074932;28;20040;-76
2022/07/24 12:38:32;;;;;;;6.40;3.15;;;26.90;99.90;;;;;;5074526;28;20072;-75